ADDS METAR Data INFO
IDs: Format: Raw Decoded Include TAF

Data at: 2109 UTC 25 Feb 2018

KAFO 252055Z AUTO 10SM SCT030 BKN043 OVC049 M06/M13 A3003 RMK AO2
KAFO 252035Z AUTO 11004KT 10SM SCT027 OVC036 M06/M14 A3003 RMK AO2
KAFO 252015Z AUTO 17005KT 10SM OVC040 M06/M14 A3003 RMK AO2
KAFO 251955Z AUTO 10SM SCT025 SCT032 OVC040 M06/M13 A3005 RMK AO2
KAFO 251935Z AUTO 10SM SCT020 BKN026 OVC048 M07/M13 A3005 RMK AO2
KAFO 251915Z AUTO 10SM SCT025 BKN030 OVC055 M07/M12 A3006 RMK AO2
KAFO 251855Z AUTO 5SM HZ SCT024 BKN030 OVC044 M07/M13 A3007 RMK AO2
KAFO 251835Z AUTO 7SM SCT018 BKN025 OVC044 M07/M13 A3007 RMK AO2
KAFO 251815Z AUTO 2 1/2SM -SN SCT018 BKN024 OVC030 M07/M12 A3007 RMK AO2
KAFO 251755Z AUTO 3SM -SN SCT021 OVC029 M07/M13 A3007 RMK AO2
KAFO 251735Z AUTO 7SM OVC029 M07/M13 A3006 RMK AO2
KAFO 251715Z AUTO 10SM SCT020 BKN026 OVC032 M07/M13 A3005 RMK AO2
KAFO 251655Z AUTO 5SM HZ SCT023 OVC029 M08/M13 A3005 RMK AO2
KAFO 251635Z AUTO 10SM SCT025 BKN032 OVC039 M08/M13 A3005 RMK AO2
KAFO 251615Z AUTO 11004KT 7SM -SN SCT032 OVC040 M08/M13 A3003 RMK AO2
KAFO 251555Z AUTO 5SM HZ OVC041 M08/M13 A3003 RMK AO2
KAFO 251535Z AUTO 10SM SCT032 BKN041 OVC048 M09/M13 A3002 RMK AO2
KAFO 251515Z AUTO 7SM BKN033 OVC045 M10/M13 A3002 RMK AO2
KAFO 251455Z AUTO 4SM -SN SCT032 OVC038 M10/M13 A3001 RMK AO2
KAFO 251435Z AUTO 10SM -SN BKN034 OVC040 M10/M13 A2999 RMK AO2
KAFO 251415Z AUTO 27005KT 10SM OVC036 M10/M13 A2997 RMK AO2
KAFO 251355Z AUTO 00000KT 10SM SCT020 SCT024 OVC036 M09/M13 A2996 RMK AO2
KAFO 251335Z AUTO 10SM BKN025 BKN030 OVC036 M10/M12 A2995 RMK AO2
KAFO 251315Z AUTO 15004KT 3SM -SN BKN019 OVC025 M10/M11 A2994 RMK AO2
KAFO 251255Z AUTO 17005KT 4SM -SN BKN024 OVC032 M10/M12 A2994 RMK AO2
KAFO 251235Z AUTO 10SM BKN028 BKN035 OVC044 M10/M12 A2994 RMK AO2
KAFO 251215Z AUTO 10SM BKN030 OVC042 M10/M13 A2993 RMK AO2
KAFO 251155Z AUTO 10SM SCT022 SCT027 OVC042 M11/M13 A2993 RMK AO2
KAFO 251135Z AUTO 10SM SCT022 BKN027 OVC033 M12/M15 A2992 RMK AO2
KAFO 251115Z AUTO 10SM BKN027 OVC033 M13/M16 A2991 RMK AO2
KAFO 251055Z AUTO 10SM BKN027 OVC035 M10/M12 A2990 RMK AO2
KAFO 251035Z AUTO 7SM BKN022 OVC027 M09/M12 A2990 RMK AO2
KAFO 251015Z AUTO 10SM OVC024 M08/M12 A2990 RMK AO2
KAFO 250955Z AUTO 10SM BKN026 OVC039 M09/M12 A2989 RMK AO2
KAFO 250935Z AUTO 10SM BKN028 OVC040 M10/M13 A2989 RMK AO2
KAFO 250915Z AUTO 10SM SCT028 OVC033 M10/M12 A2989 RMK AO2
KAFO 250855Z AUTO 10SM SCT030 SCT035 OVC043 M10/M12 A2989 RMK AO2
KAFO 250835Z AUTO 7SM BKN032 OVC045 M09/M12 A2989 RMK AO2
KAFO 250815Z AUTO 16004KT 4SM -SN SCT018 BKN025 OVC032 M08/M11 A2988 RMK AO2
KAFO 250755Z AUTO 3SM -SN SCT016 BKN023 OVC030 M09/M11 A2988 RMK AO2
KAFO 250735Z AUTO 10SM SCT028 BKN035 OVC042 M09/M12 A2988 RMK AO2
KAFO 250715Z AUTO 7SM SCT025 BKN035 OVC044 M08/M12 A2987 RMK AO2
KAFO 250655Z AUTO 7SM SCT027 OVC036 M08/M12 A2987 RMK AO2
KAFO 250635Z AUTO 10SM BKN036 OVC042 M08/M12 A2985 RMK AO2
KAFO 250615Z AUTO 10SM SCT027 OVC036 M08/M12 A2986 RMK AO2
KAFO 250555Z AUTO 16008KT 10SM SCT027 OVC036 M08/M12 A2985 RMK AO2
KAFO 250535Z AUTO 10SM BKN033 OVC050 M08/M12 A2986 RMK AO2
KAFO 250515Z AUTO 16008KT 10SM BKN045 OVC050 M08/M13 A2985 RMK AO2
KAFO 250455Z AUTO 7SM SCT030 OVC047 M08/M12 A2985 RMK AO2
KAFO 250435Z AUTO 7SM SCT024 BKN030 OVC047 M08/M12 A2985 RMK AO2
KAFO 250415Z AUTO 10SM SCT017 SCT023 OVC028 M08/M12 A2985 RMK AO2
KAFO 250355Z AUTO 16007KT 3SM -SN OVC015 M08/M12 A2985 RMK AO2
KAFO 250335Z AUTO 5SM -SN SCT018 OVC029 M08/M12 A2985 RMK AO2
KAFO 250315Z AUTO 10SM SCT026 BKN034 OVC042 M08/M13 A2984 RMK AO2
KAFO 250255Z AUTO 10SM SCT029 SCT034 OVC041 M08/M12 A2984 RMK AO2
KAFO 250235Z AUTO 10SM SCT034 OVC041 M08/M12 A2984 RMK AO2
KAFO 250215Z AUTO 10SM SCT023 SCT036 OVC043 M08/M12 A2984 RMK AO2
KAFO 250155Z AUTO 15006KT 3SM -SN BKN023 BKN032 OVC041 M08/M11 A2984 RMK AO2
KAFO 250135Z AUTO 5SM HZ BKN029 BKN034 OVC044 M08/M11 A2984 RMK AO2
KAFO 250115Z AUTO 4SM HZ BKN027 OVC033 M08/M12 A2984 RMK AO2
KAFO 250055Z AUTO 17006KT 3SM HZ SCT024 OVC032 M08/M11 A2983 RMK AO2
KAFO 250035Z AUTO 17008KT 3SM HZ BKN036 OVC042 M08/M11 A2983 RMK AO2
KAFO 250015Z AUTO 7SM SCT036 BKN042 OVC048 M07/M12 A2983 RMK AO2
KAFO 242355Z AUTO 10SM SCT043 OVC050 M07/M12 A2982 RMK AO2
KAFO 242335Z AUTO 16006KT 10SM SCT029 BKN042 OVC050 M07/M11 A2983 RMK AO2
KAFO 242315Z AUTO 10SM BKN036 OVC042 M07/M11 A2983 RMK AO2
KAFO 242255Z AUTO 10SM SCT014 BKN034 OVC041 M07/M11 A2984 RMK AO2
KAFO 242235Z AUTO 2SM -SN SCT014 BKN026 OVC034 M07/M10 A2984 RMK AO2
KAFO 242215Z AUTO 2SM HZ SCT016 OVC026 M07/M11 A2984 RMK AO2
KAFO 242155Z AUTO 2 1/2SM HZ SCT020 OVC028 M07/M11 A2984 RMK AO2 VIS 2 1/2V3
KAFO 242135Z AUTO 2 1/2SM -SN BKN022 OVC027 M07/M11 A2984 RMK AO2 VIS 1 1/2V5
KAFO 242115Z AUTO 28003KT 4SM HZ BKN025 OVC032 M08/M12 A2984 RMK AO2
KAFO 242055Z AUTO 10SM BKN034 OVC043 M07/M12 A2985 RMK AO2
KAFO 242035Z AUTO 10SM SCT027 SCT033 OVC042 M08/M13 A2986 RMK AO2
KAFO 242015Z AUTO 10SM SCT034 OVC040 M07/M13 A2987 RMK AO2
KAFO 241955Z AUTO 10SM OVC034 M07/M13 A2988 RMK AO2
KAFO 241935Z AUTO 10SM SCT028 OVC039 M08/M13 A2990 RMK AO2
KAFO 241915Z AUTO 00000KT 10SM SCT029 SCT035 BKN044 M08/M13 A2990 RMK AO2
KAFO 241855Z AUTO 00000KT 10SM BKN033 BKN046 M10/M15 A2991 RMK AO2
KAFO 241835Z AUTO 10SM OVC035 M10/M15 A2992 RMK AO2
KAFO 241815Z AUTO 00000KT 10SM BKN035 OVC042 M11/M16 A2994 RMK AO2
KAFO 241755Z AUTO 10SM OVC040 M13/M16 A2995 RMK AO2
KAFO 241735Z AUTO 10SM OVC040 M13/M16 A2995 RMK AO2
KAFO 241715Z AUTO 10SM OVC040 M13/M17 A2995 RMK AO2
KAFO 241655Z AUTO 33003KT 3SM -SN SCT031 OVC040 M15/M17 A2997 RMK AO2
KAFO 241635Z AUTO 29006KT 5SM HZ BKN033 OVC042 M15/M17 A2997 RMK AO2
KAFO 241615Z AUTO 7SM SCT028 SCT034 OVC040 M15/M18 A2997 RMK AO2
KAFO 241555Z AUTO 5SM BR SCT028 OVC036 M16/M18 A2997 RMK AO2
KAFO 241535Z AUTO 25003KT 2 1/2SM BR SCT024 OVC036 M16/M18 A2998 RMK AO2
KAFO 241515Z AUTO 3SM HZ OVC038 M16/M19 A2998 RMK AO2
KAFO 241455Z AUTO 00000KT 3SM HZ OVC040 M17/M20 A2997 RMK AO2
KAFO 241435Z AUTO 2 1/2SM -SN OVC040 M17/M20 A2997 RMK AO2
KAFO 241415Z AUTO 3SM -SN OVC040 M17/M20 A2998 RMK AO2
KAFO 241355Z AUTO 3SM BR OVC042 M17/M20 A2998 RMK AO2
KAFO 241335Z AUTO 00000KT 3SM -SN BKN028 SCT034 OVC046 M17/M20 A2998 RMK AO2
KAFO 241315Z AUTO 4SM BR BKN028 BKN033 OVC048 M18/M20 A2999 RMK AO2
KAFO 241255Z AUTO 4SM HZ SCT028 BKN042 OVC048 M18/M21 A2998 RMK AO2
KAFO 241235Z AUTO 3SM -SN SCT028 OVC040 M18/M21 A2998 RMK AO2
KAFO 241215Z AUTO 2 1/2SM UP SCT021 OVC040 M18/M21 A2998 RMK AO2
KAFO 241155Z AUTO 00000KT 2SM -SN OVC021 M18/M21 A2999 RMK AO2
KAFO 241135Z AUTO 2SM -SN OVC021 M18/M21 A2998 RMK AO2
KAFO 241115Z AUTO 5SM HZ BKN026 BKN031 OVC039 M18/M21 A2999 RMK AO2
KAFO 241055Z AUTO 10SM SCT036 BKN043 OVC050 M19/M22 A2999 RMK AO2
KAFO 241035Z AUTO 10SM SCT042 SCT048 OVC060 M20/M23 A3000 RMK AO2
KAFO 241015Z AUTO 10SM SCT041 OVC060 M19/M22 A3000 RMK AO2
KAFO 240955Z AUTO 10SM SCT041 BKN055 OVC120 M20/M23 A3000 RMK AO2
KAFO 240935Z AUTO 10SM SCT035 BKN055 BKN110 M21/M25 A3001 RMK AO2
KAFO 240915Z AUTO 10SM BKN037 BKN100 M20/M23 A3001 RMK AO2